createdAt,value
2023-04-18T00:00:09.299Z,30.12
2023-04-18T00:01:09.316Z,30.10
2023-04-18T00:02:09.420Z,30.10
2023-04-18T00:03:09.573Z,30.10
2023-04-18T00:04:09.492Z,30.11
2023-04-18T00:05:09.430Z,30.08
2023-04-18T00:06:09.336Z,30.10
2023-04-18T00:07:09.424Z,30.09
2023-04-18T00:08:09.520Z,30.10
2023-04-18T00:09:09.629Z,30.10
2023-04-18T00:10:09.584Z,30.10
2023-04-18T00:11:09.605Z,30.07
2023-04-18T00:12:09.597Z,30.09
2023-04-18T00:13:09.615Z,30.09
2023-04-18T00:14:09.613Z,30.08
2023-04-18T00:15:09.641Z,30.10
2023-04-18T00:16:09.708Z,30.07
2023-04-18T00:17:09.786Z,30.07
2023-04-18T00:18:09.697Z,30.07
2023-04-18T00:19:09.706Z,30.10
2023-04-18T00:20:09.707Z,30.09
2023-04-18T00:21:09.797Z,30.09
2023-04-18T00:22:09.894Z,30.08
2023-04-18T00:23:12.138Z,30.06
2023-04-18T00:24:09.988Z,30.08
2023-04-18T00:25:09.955Z,30.07
2023-04-18T00:26:09.979Z,30.05
2023-04-18T00:27:09.981Z,30.05
2023-04-18T00:28:09.935Z,30.07
2023-04-18T00:29:09.923Z,30.05
2023-04-18T00:30:09.944Z,30.07
2023-04-18T00:31:09.977Z,30.05
2023-04-18T00:32:09.905Z,30.07
2023-04-18T00:33:09.913Z,30.06
2023-04-18T00:34:09.898Z,30.03
2023-04-18T00:35:09.914Z,30.05
2023-04-18T00:36:09.893Z,30.06
2023-04-18T00:37:09.922Z,30.06
2023-04-18T00:38:09.879Z,30.05
2023-04-18T00:39:09.902Z,30.05
2023-04-18T00:40:09.853Z,30.05
2023-04-18T00:41:09.865Z,30.05
2023-04-18T00:42:09.874Z,30.03
2023-04-18T00:43:09.836Z,30.04
2023-04-18T00:44:09.890Z,30.04
2023-04-18T00:45:09.837Z,30.03
2023-04-18T00:46:09.897Z,30.02
2023-04-18T00:47:09.853Z,30.04
2023-04-18T00:48:09.811Z,30.02
2023-04-18T00:49:09.828Z,30.02
2023-04-18T00:50:09.847Z,30.01
2023-04-18T00:51:09.818Z,30.02
2023-04-18T00:52:09.773Z,30.02
2023-04-18T00:53:09.797Z,30.03
2023-04-18T00:54:09.790Z,30.01
2023-04-18T00:55:09.782Z,30.00
2023-04-18T00:56:09.763Z,30.03
2023-04-18T00:57:09.730Z,30.04
2023-04-18T00:58:09.780Z,30.00
2023-04-18T00:59:09.728Z,30.01
2023-04-18T01:00:09.785Z,30.02
2023-04-18T01:01:09.789Z,30.01
2023-04-18T01:02:09.753Z,29.99
2023-04-18T01:03:09.793Z,30.00
2023-04-18T01:04:09.851Z,30.01
2023-04-18T01:05:09.721Z,30.00
2023-04-18T01:06:09.683Z,30.00
2023-04-18T01:07:09.707Z,30.02
2023-04-18T01:08:09.698Z,30.02
2023-04-18T01:09:09.686Z,30.02
2023-04-18T01:10:09.684Z,29.99
2023-04-18T01:11:09.705Z,29.99
2023-04-18T01:12:09.675Z,30.00
2023-04-18T01:13:09.624Z,29.98
2023-04-18T01:14:09.655Z,29.97
2023-04-18T01:15:09.647Z,30.00
2023-04-18T01:16:09.801Z,30.00
2023-04-18T01:17:09.631Z,29.99
2023-04-18T01:18:09.664Z,29.99
2023-04-18T01:19:09.609Z,29.98
2023-04-18T01:20:09.621Z,29.99
2023-04-18T01:21:09.589Z,29.99
2023-04-18T01:22:09.609Z,29.98
2023-04-18T01:23:09.554Z,29.97
2023-04-18T01:24:09.581Z,29.99
2023-04-18T01:25:09.594Z,29.98
2023-04-18T01:26:09.553Z,29.98
2023-04-18T01:27:09.539Z,29.98
2023-04-18T01:28:09.558Z,29.98
2023-04-18T01:29:09.560Z,29.96
2023-04-18T01:30:09.550Z,29.97
2023-04-18T01:31:09.520Z,29.96
2023-04-18T01:32:09.495Z,29.95
2023-04-18T01:33:09.511Z,29.97
2023-04-18T01:34:09.501Z,29.96
2023-04-18T01:35:09.566Z,29.96
2023-04-18T01:36:09.494Z,29.94
2023-04-18T01:37:09.464Z,29.95
2023-04-18T01:38:09.456Z,29.95
2023-04-18T01:39:09.513Z,29.94
2023-04-18T01:40:09.482Z,29.96
2023-04-18T01:41:09.443Z,29.95
2023-04-18T01:42:09.461Z,29.96
2023-04-18T01:43:09.452Z,29.94
2023-04-18T01:44:09.418Z,29.96
2023-04-18T01:45:09.436Z,29.93
2023-04-18T01:46:09.435Z,29.95
2023-04-18T01:47:09.392Z,29.93
2023-04-18T01:48:09.399Z,29.93
2023-04-18T01:49:09.393Z,29.94
2023-04-18T01:50:09.402Z,29.92
2023-04-18T01:51:09.492Z,29.92
2023-04-18T01:52:09.395Z,29.93
2023-04-18T01:53:09.379Z,29.92
2023-04-18T01:54:09.386Z,29.92
2023-04-18T01:55:09.396Z,29.93
2023-04-18T01:56:09.388Z,29.93
2023-04-18T01:57:09.386Z,29.92
2023-04-18T01:58:09.381Z,29.91
2023-04-18T01:59:09.343Z,29.92
2023-04-18T02:00:09.363Z,29.90
2023-04-18T02:01:09.342Z,29.91
2023-04-18T02:02:09.391Z,29.93
2023-04-18T02:03:09.473Z,29.92
2023-04-18T02:04:09.346Z,29.92
2023-04-18T02:05:09.319Z,29.91
2023-04-18T02:06:09.313Z,29.91
2023-04-18T02:07:09.289Z,29.91
2023-04-18T02:08:09.275Z,29.91
2023-04-18T02:09:09.259Z,29.91
2023-04-18T02:10:09.268Z,29.91
2023-04-18T02:11:09.282Z,29.91
2023-04-18T02:12:09.256Z,29.91
2023-04-18T02:13:09.273Z,29.89
2023-04-18T02:14:09.262Z,29.92
2023-04-18T02:15:09.219Z,29.90
2023-04-18T02:16:09.259Z,29.89
2023-04-18T02:17:09.204Z,29.89
2023-04-18T02:18:09.216Z,29.89
2023-04-18T02:19:09.215Z,29.91
2023-04-18T02:20:09.231Z,29.90
2023-04-18T02:21:09.218Z,29.89
2023-04-18T02:22:09.212Z,29.88
2023-04-18T02:23:09.172Z,29.89
2023-04-18T02:24:09.206Z,29.88
2023-04-18T02:25:09.207Z,29.86
2023-04-18T02:26:09.176Z,29.88
2023-04-18T02:27:09.141Z,29.86
2023-04-18T02:28:09.147Z,29.89
2023-04-18T02:29:09.122Z,29.85
2023-04-18T02:30:09.140Z,29.88
2023-04-18T02:31:09.120Z,29.88
2023-04-18T02:32:09.259Z,29.87
2023-04-18T02:33:09.135Z,29.86
2023-04-18T02:34:09.142Z,29.87
2023-04-18T02:35:09.137Z,29.85
2023-04-18T02:36:09.092Z,29.86
2023-04-18T02:37:09.098Z,29.87
2023-04-18T02:38:09.086Z,29.87
2023-04-18T02:39:09.085Z,29.87
2023-04-18T02:40:09.095Z,29.86
2023-04-18T02:41:09.088Z,29.84
2023-04-18T02:42:09.064Z,29.84
2023-04-18T02:43:09.043Z,29.84
2023-04-18T02:44:09.017Z,29.85
2023-04-18T02:45:09.037Z,29.84
2023-04-18T02:46:09.104Z,29.86
2023-04-18T02:47:09.042Z,29.84
2023-04-18T02:48:09.060Z,29.83
2023-04-18T02:49:08.996Z,29.86
2023-04-18T02:50:09.002Z,29.84
2023-04-18T02:51:08.989Z,29.85
2023-04-18T02:52:08.999Z,29.87
2023-04-18T02:53:08.993Z,29.84
2023-04-18T02:54:09.028Z,29.84
2023-04-18T02:55:08.978Z,29.85
2023-04-18T02:56:08.955Z,29.83
2023-04-18T02:57:08.975Z,29.84
2023-04-18T02:58:08.983Z,29.82
2023-04-18T02:59:08.991Z,29.83
2023-04-18T03:00:08.949Z,29.83
2023-04-18T03:01:08.988Z,29.82
2023-04-18T03:02:09.001Z,29.83
2023-04-18T03:03:08.964Z,29.83
2023-04-18T03:04:08.923Z,29.83
2023-04-18T03:05:09.002Z,29.82
2023-04-18T03:06:08.891Z,29.84
2023-04-18T03:07:08.888Z,29.82
2023-04-18T03:08:08.908Z,29.82
2023-04-18T03:09:08.909Z,29.82
2023-04-18T03:10:08.883Z,29.81
2023-04-18T03:11:08.866Z,29.81
2023-04-18T03:12:08.960Z,29.83
2023-04-18T03:13:08.994Z,29.83
2023-04-18T03:14:08.994Z,29.82
2023-04-18T03:15:08.984Z,29.81
2023-04-18T03:16:09.018Z,29.83
2023-04-18T03:17:08.953Z,29.81
2023-04-18T03:18:09.158Z,29.83
2023-04-18T03:19:09.153Z,29.81
2023-04-18T03:20:09.273Z,29.80
2023-04-18T03:21:09.347Z,29.80
2023-04-18T03:22:09.450Z,29.80
2023-04-18T03:23:09.549Z,29.80
2023-04-18T03:24:10.896Z,29.81
2023-04-18T03:25:09.683Z,29.78
2023-04-18T03:26:09.800Z,29.77
2023-04-18T03:27:09.668Z,29.79
2023-04-18T03:28:09.656Z,29.79
2023-04-18T03:29:52.764Z,29.81
2023-04-18T03:30:52.903Z,29.80
2023-04-18T03:31:52.812Z,29.79
2023-04-18T03:32:52.994Z,29.79
2023-04-18T03:33:52.899Z,29.79
2023-04-18T03:34:52.903Z,29.81
2023-04-18T03:35:52.860Z,29.80
2023-04-18T03:36:52.873Z,29.79
2023-04-18T03:37:52.868Z,29.81
2023-04-18T03:38:52.879Z,29.78
2023-04-18T03:39:52.867Z,29.79
2023-04-18T03:40:52.850Z,29.79
2023-04-18T03:41:52.807Z,29.78
2023-04-18T03:42:52.824Z,29.79
2023-04-18T03:43:52.827Z,29.79
2023-04-18T03:44:52.873Z,29.77
2023-04-18T03:45:52.873Z,29.78
2023-04-18T03:46:52.814Z,29.79
2023-04-18T03:47:52.832Z,29.76
2023-04-18T03:48:52.781Z,29.78
2023-04-18T03:49:52.790Z,29.78
2023-04-18T03:50:52.744Z,29.77
2023-04-18T03:51:52.805Z,29.76
2023-04-18T03:52:52.769Z,29.76
2023-04-18T03:53:52.747Z,29.74
2023-04-18T03:54:52.758Z,29.74
2023-04-18T03:55:52.721Z,29.74
2023-04-18T03:56:52.744Z,29.76
2023-04-18T03:57:52.707Z,29.72
2023-04-18T03:58:52.761Z,29.77
2023-04-18T03:59:52.713Z,29.76
2023-04-18T04:00:52.701Z,29.75
2023-04-18T04:01:52.812Z,29.75
2023-04-18T04:02:52.873Z,29.73
2023-04-18T04:03:52.869Z,29.74
2023-04-18T04:04:52.808Z,29.74
2023-04-18T04:05:52.678Z,29.73
2023-04-18T04:06:52.661Z,29.74
2023-04-18T04:07:52.651Z,29.73
2023-04-18T04:08:52.649Z,29.71
2023-04-18T04:09:52.664Z,29.73
2023-04-18T04:10:52.679Z,29.71
2023-04-18T04:11:52.716Z,29.71
2023-04-18T04:12:52.643Z,29.75
2023-04-18T04:13:52.674Z,29.73
2023-04-18T04:14:52.619Z,29.72
2023-04-18T04:15:52.626Z,29.71
2023-04-18T04:16:52.824Z,29.73
2023-04-18T04:17:52.720Z,29.73
2023-04-18T04:18:52.639Z,29.71
2023-04-18T04:19:52.584Z,29.70
2023-04-18T04:20:52.591Z,29.71
2023-04-18T04:21:52.602Z,29.72
2023-04-18T04:22:52.584Z,29.70
2023-04-18T04:23:52.577Z,29.71
2023-04-18T04:24:52.571Z,29.69
2023-04-18T04:25:52.564Z,29.71
2023-04-18T04:26:52.567Z,29.72
2023-04-18T04:27:52.549Z,29.70
2023-04-18T04:28:52.530Z,29.69
2023-04-18T04:29:52.565Z,29.70
2023-04-18T04:30:52.523Z,29.70
2023-04-18T04:31:52.536Z,29.70
2023-04-18T04:32:52.582Z,29.72
2023-04-18T04:33:52.522Z,29.69
2023-04-18T04:34:52.509Z,29.68
2023-04-18T04:35:52.516Z,29.69
2023-04-18T04:36:52.496Z,29.69
2023-04-18T04:37:52.486Z,29.69
2023-04-18T04:38:52.474Z,29.70
2023-04-18T04:39:52.539Z,29.69
2023-04-18T04:40:52.462Z,29.70
2023-04-18T04:41:52.466Z,31.32
2023-04-18T04:42:52.452Z,29.71
2023-04-18T04:43:52.459Z,29.68
2023-04-18T04:44:52.474Z,29.68
2023-04-18T04:45:52.488Z,29.67
2023-04-18T04:46:52.425Z,29.68
2023-04-18T04:47:52.434Z,29.68
2023-04-18T04:48:52.412Z,29.67
2023-04-18T04:49:52.396Z,29.67
2023-04-18T04:50:52.408Z,29.68
2023-04-18T04:51:52.415Z,29.67
2023-04-18T04:52:52.397Z,29.67
2023-04-18T04:53:52.372Z,29.70
2023-04-18T04:54:52.360Z,29.67
2023-04-18T04:55:52.351Z,29.66
2023-04-18T04:56:52.354Z,29.67
2023-04-18T04:57:52.329Z,29.65
2023-04-18T04:58:52.338Z,29.65
2023-04-18T04:59:52.426Z,29.66
2023-04-18T05:00:52.414Z,29.66
2023-04-18T05:01:52.487Z,29.68
2023-04-18T05:02:52.420Z,29.64
2023-04-18T05:03:52.413Z,29.64
2023-04-18T05:04:52.324Z,29.65
2023-04-18T05:05:52.288Z,29.66
2023-04-18T05:06:52.300Z,29.63
2023-04-18T05:07:52.279Z,29.63
2023-04-18T05:08:52.284Z,29.64
2023-04-18T05:09:52.275Z,29.62
2023-04-18T05:10:52.242Z,29.65
2023-04-18T05:11:52.267Z,29.63
2023-04-18T05:12:52.214Z,29.62
2023-04-18T05:13:52.234Z,29.63
2023-04-18T05:14:52.334Z,29.63
2023-04-18T05:15:52.236Z,29.63
2023-04-18T05:16:52.252Z,29.61
2023-04-18T05:17:52.242Z,29.63
2023-04-18T05:18:52.205Z,29.61
2023-04-18T05:19:52.192Z,29.62
2023-04-18T05:20:52.216Z,29.62
2023-04-18T05:21:52.186Z,29.62
2023-04-18T05:22:52.178Z,29.60
2023-04-18T05:23:52.152Z,29.61
2023-04-18T05:24:52.961Z,29.61
2023-04-18T05:25:52.145Z,29.60
2023-04-18T05:26:52.125Z,29.60
2023-04-18T05:27:52.157Z,29.60
2023-04-18T05:28:52.118Z,29.59
2023-04-18T05:29:52.130Z,29.59
2023-04-18T05:30:52.170Z,29.59
2023-04-18T05:31:52.103Z,29.59
2023-04-18T05:32:52.238Z,29.60
2023-04-18T05:33:52.102Z,29.59
2023-04-18T05:34:52.087Z,29.59
2023-04-18T05:35:52.090Z,29.59
2023-04-18T05:36:52.128Z,29.63
2023-04-18T05:37:52.138Z,29.60
2023-04-18T05:38:52.085Z,29.69
2023-04-18T05:39:52.202Z,29.77
2023-04-18T05:40:52.302Z,29.95
2023-04-18T05:41:52.419Z,30.09
2023-04-18T05:42:52.480Z,30.21
2023-04-18T05:44:02.348Z,30.53
2023-04-18T05:44:53.584Z,30.72
2023-04-18T05:45:52.802Z,30.94
2023-04-18T05:46:52.570Z,31.25
2023-04-18T05:47:52.894Z,31.46
2023-04-18T05:48:52.557Z,31.49
2023-04-18T05:49:52.568Z,32.03
2023-04-18T05:50:52.553Z,31.93
2023-04-18T05:51:52.527Z,31.74
2023-04-18T05:52:52.542Z,31.72
2023-04-18T05:53:52.517Z,30.11
2023-04-18T05:54:52.536Z,29.47
2023-04-18T05:55:52.509Z,29.08
2023-04-18T05:56:52.511Z,29.27
2023-04-18T05:57:52.524Z,29.40
2023-04-18T05:58:52.489Z,29.32
2023-04-18T05:59:52.492Z,29.24
2023-04-18T06:00:52.479Z,29.37
2023-04-18T06:01:52.510Z,30.28
2023-04-18T06:02:52.712Z,30.95
2023-04-18T06:03:52.750Z,31.20
2023-04-18T06:04:52.755Z,31.21
2023-04-18T06:05:52.712Z,31.57
2023-04-18T06:06:52.768Z,31.73
2023-04-18T06:07:52.778Z,31.94
2023-04-18T06:08:52.733Z,32.08
2023-04-18T06:09:52.772Z,32.17
2023-04-18T06:10:52.779Z,32.30
2023-04-18T06:11:52.849Z,32.47
2023-04-18T06:12:52.826Z,32.61
2023-04-18T06:13:52.818Z,32.69
2023-04-18T06:14:52.839Z,32.86
2023-04-18T06:15:52.862Z,32.96
2023-04-18T06:16:52.921Z,33.07
2023-04-18T06:17:52.938Z,33.13
2023-04-18T06:18:52.888Z,33.24
2023-04-18T06:19:52.975Z,33.43
2023-04-18T06:20:52.972Z,33.43
2023-04-18T06:21:53.029Z,33.44
2023-04-18T06:22:53.094Z,33.54
2023-04-18T06:23:53.172Z,33.71
2023-04-18T06:24:53.215Z,33.75
2023-04-18T06:25:53.264Z,33.87
2023-04-18T06:26:54.441Z,33.93
2023-04-18T06:27:53.389Z,34.05
2023-04-18T06:28:53.433Z,34.06
2023-04-18T06:29:53.985Z,34.16
2023-04-18T06:30:53.555Z,34.34
2023-04-18T06:31:53.603Z,34.44
2023-04-18T06:32:53.730Z,34.59
2023-04-18T06:33:53.728Z,34.64
2023-04-18T06:34:53.728Z,34.73
2023-04-18T06:35:53.798Z,34.82
2023-04-18T06:36:53.862Z,34.92
2023-04-18T06:37:53.892Z,35.01
2023-04-18T06:38:53.925Z,35.12
2023-04-18T06:39:53.947Z,35.21
2023-04-18T06:40:53.971Z,35.26
2023-04-18T06:41:53.996Z,35.30
2023-04-18T06:42:54.047Z,35.42
2023-04-18T06:44:03.726Z,35.50
2023-04-18T06:44:55.487Z,35.54
2023-04-18T06:45:54.183Z,35.64
2023-04-18T06:46:54.085Z,35.95
2023-04-18T06:47:54.098Z,35.72
2023-04-18T06:48:54.079Z,36.01
2023-04-18T06:49:54.093Z,35.97
2023-04-18T06:50:54.055Z,33.63
2023-04-18T06:51:54.037Z,32.65
2023-04-18T06:52:54.035Z,31.09
2023-04-18T06:53:54.036Z,30.40
2023-04-18T06:54:54.018Z,30.34
2023-04-18T06:55:54.007Z,30.83
2023-04-18T06:56:54.032Z,31.33
2023-04-18T06:57:54.035Z,30.88
2023-04-18T06:58:54.002Z,30.54
2023-04-18T06:59:53.991Z,30.98
2023-04-18T07:00:54.025Z,31.49
2023-04-18T07:01:54.395Z,31.50
2023-04-18T07:02:54.209Z,31.44
2023-04-18T07:03:54.129Z,31.57
2023-04-18T07:04:54.093Z,31.82
2023-04-18T07:05:54.152Z,31.92
2023-04-18T07:06:54.153Z,31.82
2023-04-18T07:07:54.147Z,31.89
2023-04-18T07:08:54.550Z,31.86
2023-04-18T07:09:54.220Z,31.95
2023-04-18T07:10:54.569Z,31.97
2023-04-18T07:11:54.389Z,31.99
2023-04-18T07:12:54.478Z,32.00
2023-04-18T07:13:54.504Z,31.95
2023-04-18T07:14:54.517Z,31.83
2023-04-18T07:15:54.533Z,31.98
2023-04-18T07:16:54.636Z,31.92
2023-04-18T07:17:54.723Z,31.77
2023-04-18T07:18:54.697Z,31.70
2023-04-18T07:19:54.803Z,31.83
2023-04-18T07:20:54.812Z,31.84
2023-04-18T07:21:54.911Z,31.88
2023-04-18T07:22:54.947Z,31.91
2023-04-18T07:23:55.004Z,31.90
2023-04-18T07:24:55.080Z,31.94
2023-04-18T07:25:55.109Z,31.95
2023-04-18T07:26:55.407Z,31.93
2023-04-18T07:27:55.266Z,31.91
2023-04-18T07:28:55.239Z,31.92
2023-04-18T07:29:55.327Z,31.67
2023-04-18T07:30:55.428Z,31.86
2023-04-18T07:31:55.457Z,31.87
2023-04-18T07:32:55.473Z,31.88
2023-04-18T07:33:55.524Z,31.93
2023-04-18T07:34:55.527Z,31.94
2023-04-18T07:35:55.597Z,31.90
2023-04-18T07:36:55.635Z,31.92
2023-04-18T07:37:55.652Z,31.91
2023-04-18T07:38:55.714Z,32.11
2023-04-18T07:39:55.755Z,32.35
2023-04-18T07:40:56.010Z,32.41
2023-04-18T07:41:56.036Z,32.30
2023-04-18T07:42:55.922Z,32.34
2023-04-18T07:43:55.960Z,32.49
2023-04-18T07:44:56.029Z,32.69
2023-04-18T07:45:56.562Z,32.71
2023-04-18T07:46:56.110Z,32.69
2023-04-18T07:47:56.200Z,33.15
2023-04-18T07:48:56.209Z,33.32
2023-04-18T07:49:56.235Z,33.18
2023-04-18T07:50:56.934Z,33.16
2023-04-18T07:51:56.306Z,33.46
2023-04-18T07:52:56.395Z,33.52
2023-04-18T07:53:56.461Z,33.52
2023-04-18T07:54:56.439Z,33.59
2023-04-18T07:55:56.471Z,33.67
2023-04-18T07:56:56.497Z,33.83
2023-04-18T07:57:56.530Z,33.92
2023-04-18T07:58:56.591Z,34.21
2023-04-18T07:59:56.604Z,34.29
2023-04-18T08:00:56.662Z,34.49
2023-04-18T08:01:56.681Z,34.57
2023-04-18T08:02:56.796Z,34.59
2023-04-18T08:03:56.789Z,34.63
2023-04-18T08:04:56.990Z,34.74
2023-04-18T08:05:56.803Z,34.83
2023-04-18T08:06:56.870Z,34.90
2023-04-18T08:07:56.915Z,34.98
2023-04-18T08:08:56.898Z,35.03
2023-04-18T08:09:56.974Z,35.12
2023-04-18T08:10:56.972Z,35.17
2023-04-18T08:11:56.989Z,35.30
2023-04-18T08:12:57.032Z,35.30
2023-04-18T08:13:57.070Z,35.39
2023-04-18T08:14:57.279Z,35.44
2023-04-18T08:15:57.524Z,35.46
2023-04-18T08:16:57.202Z,35.49
2023-04-18T08:17:57.266Z,35.57
2023-04-18T08:18:57.221Z,35.56
2023-04-18T08:19:57.279Z,35.66
2023-04-18T08:20:57.289Z,35.70
2023-04-18T08:21:57.320Z,35.75
2023-04-18T08:23:06.838Z,35.85
2023-04-18T08:23:58.346Z,35.91
2023-04-18T08:25:04.194Z,35.96
2023-04-18T08:25:58.327Z,36.04
2023-04-18T08:26:57.324Z,36.08
2023-04-18T08:27:57.304Z,36.14
2023-04-18T08:28:57.330Z,36.16
2023-04-18T08:29:57.294Z,36.23
2023-04-18T08:30:57.406Z,36.25
2023-04-18T08:31:57.435Z,36.21
2023-04-18T08:32:58.138Z,36.35
2023-04-18T08:33:57.286Z,36.34
2023-04-18T08:34:57.311Z,36.42
2023-04-18T08:35:57.255Z,36.78
2023-04-18T08:36:57.272Z,36.63
2023-04-18T08:37:57.275Z,36.66
2023-04-18T08:38:57.259Z,36.67
2023-04-18T08:39:57.254Z,36.72
2023-04-18T08:40:57.209Z,36.76
2023-04-18T08:41:57.246Z,36.84
2023-04-18T08:42:57.227Z,36.85
2023-04-18T08:43:57.340Z,36.94
2023-04-18T08:44:57.212Z,36.84
2023-04-18T08:45:57.524Z,33.89
2023-04-18T08:46:57.262Z,33.09
2023-04-18T08:47:57.366Z,33.01
2023-04-18T08:48:57.345Z,33.02
2023-04-18T08:49:57.381Z,33.42
2023-04-18T08:50:57.517Z,33.64
2023-04-18T08:51:57.439Z,33.74
2023-04-18T08:52:57.463Z,33.55
2023-04-18T08:53:57.491Z,33.68
2023-04-18T08:54:57.534Z,33.83
2023-04-18T08:55:57.556Z,33.65
2023-04-18T08:56:57.624Z,33.38
2023-04-18T08:57:57.658Z,32.30
2023-04-18T08:58:57.705Z,32.10
2023-04-18T08:59:57.743Z,32.14
2023-04-18T09:00:57.880Z,31.66
2023-04-18T09:01:57.869Z,32.21
2023-04-18T09:02:57.992Z,32.22
2023-04-18T09:03:57.954Z,32.07
2023-04-18T09:04:58.032Z,32.92
2023-04-18T09:05:58.088Z,32.90
2023-04-18T09:06:58.143Z,33.05
2023-04-18T09:07:58.180Z,33.26
2023-04-18T09:08:58.226Z,33.27
2023-04-18T09:09:58.309Z,33.24
2023-04-18T09:10:58.330Z,33.26
2023-04-18T09:11:58.400Z,33.33
2023-04-18T09:12:58.430Z,33.40
2023-04-18T09:13:58.467Z,33.46
2023-04-18T09:14:58.495Z,33.58
2023-04-18T09:15:58.538Z,33.68
2023-04-18T09:16:58.730Z,33.79
2023-04-18T09:17:58.778Z,33.91
2023-04-18T09:18:58.737Z,33.97
2023-04-18T09:19:58.661Z,34.01
2023-04-18T09:20:58.742Z,34.10
2023-04-18T09:21:58.747Z,34.24
2023-04-18T09:22:58.779Z,34.25
2023-04-18T09:23:58.797Z,34.29
2023-04-18T09:24:58.853Z,34.28
2023-04-18T09:25:58.908Z,34.33
2023-04-18T09:26:58.923Z,34.35
2023-04-18T09:27:58.910Z,34.33
2023-04-18T09:28:58.932Z,34.34
2023-04-18T09:29:58.978Z,34.35
2023-04-18T09:30:59.056Z,34.37
2023-04-18T09:31:59.012Z,34.38
2023-04-18T09:32:59.267Z,34.46
2023-04-18T09:33:59.068Z,34.45
2023-04-18T09:34:59.479Z,34.45
2023-04-18T09:35:59.148Z,34.48
2023-04-18T09:36:59.154Z,34.49
2023-04-18T09:37:59.128Z,34.55
2023-04-18T09:38:59.127Z,34.51
2023-04-18T09:39:59.480Z,34.50
2023-04-18T09:41:00.586Z,34.75
2023-04-18T09:41:59.172Z,34.70
2023-04-18T09:42:59.216Z,34.68
2023-04-18T09:43:59.207Z,34.67
2023-04-18T09:44:59.195Z,34.73
2023-04-18T09:45:59.297Z,34.63
2023-04-18T09:46:59.229Z,34.57
2023-04-18T09:47:59.299Z,34.57
2023-04-18T09:48:59.249Z,34.45
2023-04-18T09:49:59.286Z,34.40
2023-04-18T09:50:59.368Z,34.38
2023-04-18T09:51:59.536Z,34.37
2023-04-18T09:52:59.341Z,34.38
2023-04-18T09:53:59.350Z,34.32
2023-04-18T09:54:59.361Z,34.28
2023-04-18T09:55:59.392Z,34.32
2023-04-18T09:56:59.439Z,34.30
2023-04-18T09:57:59.432Z,34.31
2023-04-18T09:58:59.422Z,34.29
2023-04-18T09:59:59.474Z,34.27
2023-04-18T10:00:59.485Z,34.27
2023-04-18T10:01:59.703Z,34.27
2023-04-18T10:02:59.656Z,34.29
2023-04-18T10:03:59.631Z,34.31
2023-04-18T10:04:59.667Z,34.30
2023-04-18T10:05:59.613Z,34.31
2023-04-18T10:07:00.104Z,34.31
2023-04-18T10:07:59.667Z,34.32
2023-04-18T10:08:59.624Z,34.33
2023-04-18T10:09:59.708Z,34.31
2023-04-18T10:10:59.686Z,34.31
2023-04-18T10:11:59.828Z,34.34
2023-04-18T10:12:59.719Z,34.33
2023-04-18T10:13:59.739Z,34.34
2023-04-18T10:14:59.751Z,34.33
2023-04-18T10:15:59.826Z,34.33
2023-04-18T10:16:59.823Z,34.34
2023-04-18T10:18:05.360Z,34.35
2023-04-18T10:19:00.833Z,34.37
2023-04-18T10:19:59.805Z,34.37
2023-04-18T10:20:59.821Z,34.38
2023-04-18T10:21:59.824Z,34.34
2023-04-18T10:22:59.837Z,34.36
2023-04-18T10:23:59.807Z,34.39
2023-04-18T10:24:59.792Z,34.37
2023-04-18T10:25:59.824Z,34.39
2023-04-18T10:26:59.782Z,34.39
2023-04-18T10:27:59.761Z,34.36
2023-04-18T10:28:59.750Z,34.37
2023-04-18T10:29:59.756Z,34.38
2023-04-18T10:30:59.753Z,34.38
2023-04-18T10:31:59.914Z,34.36
2023-04-18T10:32:59.732Z,34.36
2023-04-18T10:34:04.653Z,34.34
2023-04-18T10:35:00.721Z,34.33
2023-04-18T10:35:59.691Z,34.19
2023-04-18T10:37:00.136Z,34.28
2023-04-18T10:38:00.053Z,34.36
2023-04-18T10:38:59.694Z,34.48
2023-04-18T10:39:59.696Z,34.49
2023-04-18T10:40:59.675Z,34.53
2023-04-18T10:41:59.694Z,34.96
2023-04-18T10:42:59.652Z,35.01
2023-04-18T10:43:59.659Z,35.01
2023-04-18T10:44:59.656Z,35.07
2023-04-18T10:45:59.640Z,35.03
2023-04-18T10:46:59.661Z,35.03
2023-04-18T10:47:59.627Z,35.08
2023-04-18T10:48:59.613Z,35.10
2023-04-18T10:49:59.613Z,35.08
2023-04-18T10:50:59.614Z,35.08
2023-04-18T10:52:00.101Z,35.10
2023-04-18T10:52:59.586Z,35.16
2023-04-18T10:53:59.564Z,35.17
2023-04-18T10:54:59.559Z,35.23
2023-04-18T10:55:59.582Z,35.15
2023-04-18T10:56:59.593Z,35.08
2023-04-18T10:57:59.545Z,35.09
2023-04-18T10:58:59.558Z,35.08
2023-04-18T10:59:59.546Z,35.06
2023-04-18T11:00:59.590Z,35.03
2023-04-18T11:01:59.576Z,35.12
2023-04-18T11:02:59.587Z,35.21
2023-04-18T11:03:59.621Z,35.33
2023-04-18T11:04:59.528Z,35.41
2023-04-18T11:05:59.531Z,35.53
2023-04-18T11:06:59.514Z,35.66
2023-04-18T11:07:59.473Z,35.79
2023-04-18T11:08:59.485Z,35.88
2023-04-18T11:09:59.500Z,35.96
2023-04-18T11:10:59.504Z,36.17
2023-04-18T11:11:59.642Z,36.18
2023-04-18T11:12:59.478Z,36.36
2023-04-18T11:13:59.453Z,36.44
2023-04-18T11:14:59.484Z,36.48
2023-04-18T11:15:59.489Z,36.68
2023-04-18T11:16:59.634Z,36.70
2023-04-18T11:17:59.660Z,36.92
2023-04-18T11:18:59.644Z,37.12
2023-04-18T11:19:59.720Z,37.06
2023-04-18T11:20:59.839Z,37.21
2023-04-18T11:21:59.860Z,37.31
2023-04-18T11:22:59.896Z,37.39
2023-04-18T11:23:59.932Z,37.40
2023-04-18T11:25:00.042Z,37.44
2023-04-18T11:26:00.097Z,37.48
2023-04-18T11:27:00.631Z,37.52
2023-04-18T11:28:00.236Z,37.65
2023-04-18T11:29:00.275Z,37.71
2023-04-18T11:30:00.321Z,37.72
2023-04-18T11:31:00.415Z,38.06
2023-04-18T11:32:00.636Z,37.89
2023-04-18T11:33:00.604Z,37.75
2023-04-18T11:34:00.556Z,37.61
2023-04-18T11:35:00.628Z,37.49
2023-04-18T11:36:00.662Z,37.31
2023-04-18T11:37:01.074Z,37.21
2023-04-18T11:38:00.811Z,37.08
2023-04-18T11:39:00.895Z,36.94
2023-04-18T11:40:00.937Z,36.99
2023-04-18T11:41:00.985Z,36.93
2023-04-18T11:42:01.074Z,36.80
2023-04-18T11:43:01.072Z,36.73
2023-04-18T11:44:01.111Z,36.64
2023-04-18T11:45:01.159Z,36.53
2023-04-18T11:46:01.241Z,36.44
2023-04-18T11:47:01.663Z,36.33
2023-04-18T11:48:01.306Z,36.27
2023-04-18T11:49:01.294Z,36.17
2023-04-18T11:50:01.380Z,36.11
2023-04-18T11:51:01.340Z,36.05
2023-04-18T11:52:01.383Z,35.87
2023-04-18T11:53:01.370Z,35.76
2023-04-18T11:54:01.407Z,35.58
2023-04-18T11:55:01.434Z,35.39
2023-04-18T11:56:01.476Z,35.07
2023-04-18T11:57:01.464Z,35.08
2023-04-18T11:58:01.491Z,35.02
2023-04-18T11:59:01.567Z,35.08
2023-04-18T12:00:01.545Z,35.09
2023-04-18T12:01:01.585Z,35.08
2023-04-18T12:02:12.622Z,35.06
2023-04-18T12:03:02.821Z,35.06
2023-04-18T12:04:01.822Z,35.05
2023-04-18T12:05:01.676Z,34.98
2023-04-18T12:06:01.659Z,34.95
2023-04-18T12:07:01.544Z,34.84
2023-04-18T12:08:01.498Z,34.79
2023-04-18T12:09:01.473Z,34.74
2023-04-18T12:10:01.492Z,34.69
2023-04-18T12:11:01.552Z,34.54
2023-04-18T12:12:01.496Z,34.04
2023-04-18T12:13:01.525Z,34.02
2023-04-18T12:14:03.612Z,34.23
2023-04-18T12:15:01.698Z,34.24
2023-04-18T12:16:01.860Z,34.25
2023-04-18T12:17:01.799Z,34.28
2023-04-18T12:18:01.991Z,34.25
2023-04-18T12:19:01.879Z,34.21
2023-04-18T12:20:01.963Z,34.20
2023-04-18T12:21:02.050Z,34.04
2023-04-18T12:22:02.048Z,34.02
2023-04-18T12:23:02.080Z,33.80
2023-04-18T12:24:02.129Z,33.76
2023-04-18T12:25:02.144Z,33.63
2023-04-18T12:26:02.222Z,33.71
2023-04-18T12:27:02.253Z,33.73
2023-04-18T12:28:02.250Z,33.74
2023-04-18T12:29:02.309Z,33.74
2023-04-18T12:30:02.382Z,33.47
2023-04-18T12:31:02.485Z,33.11
2023-04-18T12:32:02.531Z,33.33
2023-04-18T12:33:02.534Z,32.98
2023-04-18T12:34:02.536Z,33.36
2023-04-18T12:35:02.562Z,33.43
2023-04-18T12:36:02.588Z,33.51
2023-04-18T12:37:02.613Z,33.55
2023-04-18T12:38:02.621Z,33.57
2023-04-18T12:39:02.671Z,33.59
2023-04-18T12:40:02.688Z,33.64
2023-04-18T12:41:02.682Z,33.68
2023-04-18T12:42:04.642Z,33.67
2023-04-18T12:43:03.947Z,33.71
2023-04-18T12:44:02.733Z,33.70
2023-04-18T12:45:02.752Z,33.75
2023-04-18T12:46:02.788Z,33.74
2023-04-18T12:47:02.988Z,33.75
2023-04-18T12:48:02.858Z,33.77
2023-04-18T12:49:02.845Z,33.77
2023-04-18T12:50:02.901Z,33.73
2023-04-18T12:51:02.932Z,33.75
2023-04-18T12:52:02.957Z,33.73
2023-04-18T12:53:03.007Z,33.71